Time;durP1;ratioP1;P1;durP2;ratioP2;P2;SDS_P1;SDS_P2;PMS_P1;PMS_P2;Temp;Humidity;BMP_temperature;BMP_pressure;BME280_temperature;BME280_humidity;BME280_pressure;Samples;Min_cycle;Max_cycle;Signal;HPM_P1;HPM_P2
2023/04/23 00:01:38;;;;;;;;;;;;;;;21.92;29.73;97944.13;4967023;28;1107;-79
2023/04/23 00:04:05;;;;;;;;;;;;;;;22.67;28.55;97942.69;4950653;28;1024;-80
2023/04/23 00:06:31;;;;;;;;;;;;;;;22.49;28.52;97948.13;4983056;28;1969;-80
2023/04/23 00:08:57;;;;;;;;;;;;;;;22.73;28.23;97940.84;4966335;28;956;-79
2023/04/23 00:11:22;;;;;;;;;;;;;;;22.29;28.80;97943.44;4966790;28;1023;-79
2023/04/23 00:13:48;;;;;;;;;;;;;;;21.94;29.20;97947.31;4982592;28;948;-80
2023/04/23 00:16:14;;;;;;;;;;;;;;;22.05;28.81;97936.44;4983070;28;929;-79
2023/04/23 00:18:40;;;;;;;;;;;;;;;21.95;29.48;97943.22;4949999;28;939;-79
2023/04/23 00:21:07;;;;;;;;;;;;;;;22.15;29.10;97935.38;4971913;28;1070;-79
2023/04/23 00:23:32;;;;;;;;;;;;;;;22.01;29.16;97942.22;4990051;28;1031;-80
2023/04/23 00:25:58;;;;;;;;;;;;;;;22.12;29.02;97939.09;5024150;28;925;-80
2023/04/23 00:28:24;;;;;;;;;;;;;;;22.05;28.95;97936.44;5005739;28;1988;-79
2023/04/23 00:30:49;;;;;;;;;;;;;;;22.14;29.04;97942.28;5024472;28;915;-80
2023/04/23 00:33:15;;;;;;;;;;;;;;;21.67;29.73;97933.50;5038136;28;955;-79
2023/04/23 00:35:41;;;;;;;;;;;;;;;22.40;28.71;97939.50;5006893;28;1182;-80
2023/04/23 00:38:06;;;;;;;;;;;;;;;22.47;28.66;97936.44;5023325;28;1200;-79
2023/04/23 00:40:32;;;;;;;;;;;;;;;22.66;28.41;97938.25;4990387;28;1222;-79
2023/04/23 00:42:57;;;;;;;;;;;;;;;22.04;29.03;97934.88;5005664;28;1044;-80
2023/04/23 00:45:23;;;;;;;;;;;;;;;22.10;28.78;97930.22;4987194;28;1160;-79
2023/04/23 00:47:48;;;;;;;;;;;;;;;21.87;28.95;97930.53;4987117;28;1987;-79
2023/04/23 00:50:14;;;;;;;;;;;;;;;21.67;29.89;97934.31;4986415;28;1268;-79
2023/04/23 00:52:39;;;;;;;;;;;;;;;21.67;29.51;97934.31;5003118;28;916;-80
2023/04/23 00:55:08;;;;;;;;;;;;;;;21.71;29.69;97932.16;4986607;28;1007;-80
2023/04/23 00:57:35;;;;;;;;;;;;;;;21.77;29.33;97933.22;5003317;28;972;-79
2023/04/23 01:00:00;;;;;;;;;;;;;;;21.98;29.27;97931.78;4970510;28;1113;-80
2023/04/23 01:02:27;;;;;;;;;;;;;;;22.39;28.84;97943.59;5003284;28;965;-80
2023/04/23 01:04:53;;;;;;;;;;;;;;;22.74;28.27;97935.97;5002490;28;954;-80
2023/04/23 01:07:19;;;;;;;;;;;;;;;22.41;28.64;97924.06;4987228;28;1903;-77
2023/04/23 01:09:45;;;;;;;;;;;;;;;22.05;28.94;97933.63;5002352;28;1238;-77
2023/04/23 01:12:10;;;;;;;;;;;;;;;22.16;28.85;97936.94;4986577;28;995;-77
2023/04/23 01:14:36;;;;;;;;;;;;;;;21.96;28.95;97936.31;5002543;28;1008;-77
2023/04/23 01:17:02;;;;;;;;;;;;;;;21.90;29.17;97929.59;5036001;28;1150;-78
2023/04/23 01:19:27;;;;;;;;;;;;;;;21.92;29.32;97932.81;4986331;28;1307;-76
2023/04/23 01:21:53;;;;;;;;;;;;;;;21.85;29.04;97931.75;5020205;28;994;-77
2023/04/23 01:24:18;;;;;;;;;;;;;;;22.27;28.69;97928.13;5002428;28;924;-77
2023/04/23 01:26:44;;;;;;;;;;;;;;;22.68;27.98;97932.91;5002966;28;1906;-77
2023/04/23 01:29:10;;;;;;;;;;;;;;;22.66;28.13;97934.63;5019470;28;879;-77
2023/04/23 01:31:35;;;;;;;;;;;;;;;22.23;28.48;97936.75;5003072;28;1010;-76
2023/04/23 01:34:01;;;;;;;;;;;;;;;21.79;28.99;97930.72;5019283;28;1031;-77
2023/04/23 01:36:26;;;;;;;;;;;;;;;21.70;29.22;97927.72;4986654;28;1116;-77
2023/04/23 01:38:52;;;;;;;;;;;;;;;21.76;29.39;97945.78;4982224;28;1251;-77
2023/04/23 01:41:18;;;;;;;;;;;;;;;21.53;29.56;97940.34;4999484;28;1110;-76
2023/04/23 01:43:44;;;;;;;;;;;;;;;21.90;28.96;97933.22;4999289;28;1321;-78
2023/04/23 01:46:09;;;;;;;;;;;;;;;22.03;29.03;97945.41;4999785;28;893;-77
2023/04/23 01:48:35;;;;;;;;;;;;;;;22.17;28.99;97947.03;4998089;28;1965;-76
2023/04/23 01:51:01;;;;;;;;;;;;;;;22.71;28.25;97945.41;4999251;28;891;-77
2023/04/23 01:53:26;;;;;;;;;;;;;;;22.78;28.02;97937.44;4981105;28;961;-77
2023/04/23 01:55:53;;;;;;;;;;;;;;;22.30;28.51;97947.88;4999792;28;920;-77
2023/04/23 01:58:19;;;;;;;;;;;;;;;21.98;28.98;97948.00;4982102;28;1210;-77
2023/04/23 02:00:45;;;;;;;;;;;;;;;21.70;29.36;97949.59;4999195;28;1321;-78
2023/04/23 02:03:11;;;;;;;;;;;;;;;21.73;29.57;97946.66;4981776;28;1162;-76
2023/04/23 02:05:37;;;;;;;;;;;;;;;21.51;29.77;97952.13;4982248;28;1138;-77
2023/04/23 02:08:02;;;;;;;;;;;;;;;21.63;29.30;97953.41;4994036;28;1895;-77
2023/04/23 02:10:30;;;;;;;;;;;;;;;21.64;29.55;97945.72;4961800;28;1425;-77
2023/04/23 02:12:56;;;;;;;;;;;;;;;22.25;28.77;97945.59;4961484;28;1160;-76
2023/04/23 02:15:22;;;;;;;;;;;;;;;22.48;28.32;97952.97;4978055;28;979;-76
2023/04/23 02:17:50;;;;;;;;;;;;;;;22.50;28.17;97944.84;4929532;28;1221;-77
2023/04/23 02:20:15;;;;;;;;;;;;;;;22.03;28.70;97953.13;4920164;29;946;-74
2023/04/23 02:22:41;;;;;;;;;;;;;;;22.04;28.83;97957.53;4889116;29;1244;-77
2023/04/23 02:25:07;;;;;;;;;;;;;;;21.76;28.89;97959.94;4888709;29;918;-77
2023/04/23 02:27:32;;;;;;;;;;;;;;;21.93;29.19;97957.06;4889204;29;1965;-77
2023/04/23 02:29:58;;;;;;;;;;;;;;;21.88;29.42;97949.09;4904309;29;1165;-77
2023/04/23 02:32:25;;;;;;;;;;;;;;;21.77;29.27;97955.06;4904595;29;1266;-77
2023/04/23 02:34:50;;;;;;;;;;;;;;;21.75;29.53;97949.84;4903822;29;971;-77
2023/04/23 02:37:16;;;;;;;;;;;;;;;21.66;29.49;97951.72;4904406;29;1286;-77
2023/04/23 02:39:41;;;;;;;;;;;;;;;22.02;29.18;97948.66;4917362;29;1462;-77
2023/04/23 02:42:07;;;;;;;;;;;;;;;22.06;28.76;97947.31;4941991;29;1102;-76
2023/04/23 02:44:33;;;;;;;;;;;;;;;22.04;29.06;97954.69;4941695;29;1118;-78
2023/04/23 02:46:59;;;;;;;;;;;;;;;21.81;29.47;97948.06;4904046;29;1894;-77
2023/04/23 02:49:25;;;;;;;;;;;;;;;22.45;28.52;97953.09;4888177;29;1265;-77
2023/04/23 02:51:50;;;;;;;;;;;;;;;22.65;27.89;97952.91;4946415;28;1034;-76
2023/04/23 02:54:16;;;;;;;;;;;;;;;22.53;28.18;97943.13;4960653;28;1353;-77
2023/04/23 02:56:41;;;;;;;;;;;;;;;22.56;28.04;97947.91;4960967;28;1243;-78
2023/04/23 02:59:07;;;;;;;;;;;;;;;22.10;28.58;97950.06;4960588;28;1268;-77
2023/04/23 03:01:33;;;;;;;;;;;;;;;21.95;28.82;97948.88;4944621;28;1212;-77
2023/04/23 03:03:59;;;;;;;;;;;;;;;21.85;28.88;97951.56;4960732;28;1368;-77
2023/04/23 03:06:24;;;;;;;;;;;;;;;22.41;28.56;97952.41;4961451;28;1175;-77
2023/04/23 03:08:50;;;;;;;;;;;;;;;22.55;28.39;97949.94;4943868;28;1911;-77
2023/04/23 03:11:15;;;;;;;;;;;;;;;22.87;27.71;97957.41;4961105;28;1220;-77
2023/04/23 03:13:41;;;;;;;;;;;;;;;22.05;28.56;97959.13;4960098;28;1293;-77
2023/04/23 03:16:06;;;;;;;;;;;;;;;21.73;29.09;97960.81;4961482;28;1223;-76
2023/04/23 03:18:32;;;;;;;;;;;;;;;21.81;28.75;97950.06;4991338;28;969;-77
2023/04/23 03:20:58;;;;;;;;;;;;;;;21.89;29.05;97950.69;4981454;28;1102;-76
2023/04/23 03:23:24;;;;;;;;;;;;;;;21.89;28.94;97945.03;4980335;28;1210;-78
2023/04/23 03:25:49;;;;;;;;;;;;;;;21.70;29.35;97961.72;4998011;28;1081;-78
2023/04/23 03:28:15;;;;;;;;;;;;;;;21.56;29.93;97957.25;4980659;28;1902;-78
2023/04/23 03:30:40;;;;;;;;;;;;;;;21.58;29.62;97959.63;4997577;28;905;-76
2023/04/23 03:33:06;;;;;;;;;;;;;;;21.59;29.86;97962.00;4980767;28;1314;-78
2023/04/23 03:35:32;;;;;;;;;;;;;;;21.81;29.53;97961.41;4997016;28;980;-78
2023/04/23 03:38:00;;;;;;;;;;;;;;;21.64;29.57;97963.50;5008171;28;1321;-79
2023/04/23 03:40:26;;;;;;;;;;;;;;;21.67;29.43;97928.63;4984559;28;1174;-78
2023/04/23 03:42:56;;;;;;;;;;;;;;;22.21;28.71;97967.56;5000440;28;1206;-79
2023/04/23 03:45:31;;;;;;;;;;;;;;;22.51;28.35;97968.31;4986071;28;937;-79
2023/04/23 03:47:57;;;;;;;;;;;;;;;22.59;28.14;97969.69;4984818;28;2054;-80
2023/04/23 03:50:22;;;;;;;;;;;;;;;21.97;28.90;97966.25;4984714;28;1335;-79
2023/04/23 03:53:00;;;;;;;;;;;;;;;21.82;29.11;97968.69;4985326;28;1144;-79
2023/04/23 03:55:46;;;;;;;;;;;;;;;21.85;29.05;97965.72;5003363;28;995;-80
2023/04/23 03:58:11;;;;;;;;;;;;;;;21.77;29.39;97974.91;4999788;28;1213;-79
2023/04/23 04:00:43;;;;;;;;;;;;;;;21.45;30.01;97972.91;4985077;28;1369;-79
2023/04/23 04:03:08;;;;;;;;;;;;;;;21.56;29.83;97973.44;4959505;28;1757;-78
2023/04/23 04:05:34;;;;;;;;;;;;;;;21.71;29.78;97985.16;4976881;28;1088;-79
2023/04/23 04:08:00;;;;;;;;;;;;;;;22.03;29.37;97987.13;4975964;28;2369;-78
2023/04/23 04:10:26;;;;;;;;;;;;;;;22.46;28.78;97989.50;4960872;28;1234;-79
2023/04/23 04:12:51;;;;;;;;;;;;;;;22.49;28.54;97994.28;4976275;28;1223;-79
2023/04/23 04:15:19;;;;;;;;;;;;;;;22.14;28.64;97990.47;4992687;28;983;-79
2023/04/23 04:17:45;;;;;;;;;;;;;;;21.71;29.28;97996.47;4976725;28;1076;-79
2023/04/23 04:20:10;;;;;;;;;;;;;;;21.92;28.96;97997.97;4977812;28;1042;-80
2023/04/23 04:22:36;;;;;;;;;;;;;;;21.75;29.41;97997.97;4996374;28;1006;-79
2023/04/23 04:25:01;;;;;;;;;;;;;;;21.91;29.56;97999.97;4979562;28;1025;-80
2023/04/23 04:27:27;;;;;;;;;;;;;;;21.99;29.26;98000.59;4980153;28;1963;-78
2023/04/23 04:29:53;;;;;;;;;;;;;;;22.02;29.35;97994.81;4979662;28;1008;-79
2023/04/23 04:32:18;;;;;;;;;;;;;;;21.90;29.35;98003.25;4979699;28;919;-79
2023/04/23 04:34:43;;;;;;;;;;;;;;;21.81;29.45;98003.91;4993275;28;1172;-79
2023/04/23 04:37:10;;;;;;;;;;;;;;;21.78;29.80;98007.63;5000866;28;1037;-79
2023/04/23 04:39:36;;;;;;;;;;;;;;;21.73;29.87;98003.31;5000025;28;965;-78
2023/04/23 04:42:01;;;;;;;;;;;;;;;21.46;30.33;98008.50;5001679;28;947;-79
2023/04/23 04:44:27;;;;;;;;;;;;;;;21.52;29.99;98006.72;5000070;28;902;-80
2023/04/23 04:46:53;;;;;;;;;;;;;;;21.61;29.82;98012.53;5000407;28;1906;-80
2023/04/23 04:49:18;;;;;;;;;;;;;;;22.10;29.34;98018.06;4982616;28;985;-78
2023/04/23 04:51:44;;;;;;;;;;;;;;;22.39;28.95;98014.47;5016967;28;1115;-78
2023/04/23 04:54:09;;;;;;;;;;;;;;;22.42;28.64;98020.00;5000695;28;952;-80
2023/04/23 04:56:35;;;;;;;;;;;;;;;21.90;29.63;98020.25;5000516;28;952;-79
2023/04/23 04:59:01;;;;;;;;;;;;;;;22.02;29.22;98023.16;5000011;28;950;-79
2023/04/23 05:01:27;;;;;;;;;;;;;;;22.04;29.24;98025.53;4983822;28;1116;-76
2023/04/23 05:03:53;;;;;;;;;;;;;;;21.75;29.50;98022.69;4982371;28;901;-79
2023/04/23 05:06:19;;;;;;;;;;;;;;;21.61;29.92;98029.53;5000121;28;1029;-79
2023/04/23 05:08:47;;;;;;;;;;;;;;;22.16;29.80;98027.63;4999138;28;1910;-79
2023/04/23 05:11:13;;;;;;;;;;;;;;;22.83;28.61;98013.47;4999998;28;1138;-78
2023/04/23 05:13:40;;;;;;;;;;;;;;;22.69;28.45;98022.44;4999147;28;1001;-79
2023/04/23 05:16:05;;;;;;;;;;;;;;;22.25;29.04;98022.13;4984168;28;1129;-77
2023/04/23 05:18:31;;;;;;;;;;;;;;;21.85;29.82;98025.22;4999034;28;1067;-78
2023/04/23 05:20:56;;;;;;;;;;;;;;;21.78;29.58;98025.41;4999416;28;1105;-78
2023/04/23 05:23:22;;;;;;;;;;;;;;;21.71;29.71;98025.63;4999124;28;920;-79
2023/04/23 05:25:48;;;;;;;;;;;;;;;21.65;30.08;98033.03;4983884;28;1155;-79
2023/04/23 05:28:14;;;;;;;;;;;;;;;21.66;29.97;98028.19;4998850;28;1902;-79
2023/04/23 05:30:40;;;;;;;;;;;;;;;21.64;29.98;98034.28;5000666;28;901;-78
2023/04/23 05:33:05;;;;;;;;;;;;;;;21.97;29.91;98037.06;4993667;28;985;-79
2023/04/23 05:35:31;;;;;;;;;;;;;;;22.54;29.20;98041.16;4979252;28;909;-80
2023/04/23 05:37:56;;;;;;;;;;;;;;;22.75;28.90;98034.03;4978192;28;1081;-79
2023/04/23 05:40:22;;;;;;;;;;;;;;;22.40;29.22;98036.69;4962718;28;952;-78
2023/04/23 05:42:47;;;;;;;;;;;;;;;22.12;29.53;98043.94;4946370;28;1133;-79
2023/04/23 05:45:13;;;;;;;;;;;;;;;21.90;30.01;98031.59;4962589;28;935;-79
2023/04/23 05:47:38;;;;;;;;;;;;;;;21.96;29.56;98026.97;4978637;28;1906;-78
2023/04/23 05:50:05;;;;;;;;;;;;;;;21.95;29.47;98039.53;4946003;28;1218;-79
2023/04/23 05:52:32;;;;;;;;;;;;;;;21.87;30.05;98032.50;4962586;28;1307;-78
2023/04/23 05:54:57;;;;;;;;;;;;;;;21.65;30.52;98026.59;4961779;28;967;-79
2023/04/23 05:57:23;;;;;;;;;;;;;;;22.62;29.43;98031.16;4962755;28;1121;-79
2023/04/23 05:59:48;;;;;;;;;;;;;;;22.68;29.04;98040.69;4977939;28;939;-80
2023/04/23 06:02:14;;;;;;;;;;;;;;;22.47;29.38;98035.66;4978470;28;1039;-79
2023/04/23 06:04:39;;;;;;;;;;;;;;;22.15;29.85;98048.72;5004187;28;948;-77
2023/04/23 06:07:05;;;;;;;;;;;;;;;21.81;30.10;98030.22;4998600;28;1981;-79
2023/04/23 06:09:30;;;;;;;;;;;;;;;21.85;29.86;98039.38;4982232;28;1104;-79
2023/04/23 06:11:56;;;;;;;;;;;;;;;21.78;30.16;98042.41;4998680;28;881;-79
2023/04/23 06:14:21;;;;;;;;;;;;;;;21.83;29.99;98039.03;4998405;28;886;-78
2023/04/23 06:16:47;;;;;;;;;;;;;;;21.96;29.69;98043.97;4997609;28;1269;-79
2023/04/23 06:19:12;;;;;;;;;;;;;;;22.12;29.80;98049.59;4981104;28;945;-79
2023/04/23 06:21:38;;;;;;;;;;;;;;;22.73;28.99;98039.34;4997453;28;920;-79
2023/04/23 06:24:04;;;;;;;;;;;;;;;22.61;29.20;98043.75;4997081;28;1021;-79
2023/04/23 06:26:30;;;;;;;;;;;;;;;22.23;29.67;98041.63;4997453;28;1014;-78
2023/04/23 06:29:00;;;;;;;;;;;;;;;22.06;29.96;98046.50;4949267;28;1301;-79
2023/04/23 06:31:33;;;;;;;;;;;;;;;21.94;30.01;98049.28;4980863;28;1511;-79
2023/04/23 06:34:00;;;;;;;;;;;;;;;22.02;29.67;98047.84;4996571;28;977;-79
2023/04/23 06:36:25;;;;;;;;;;;;;;;22.02;29.79;98045.00;4981229;28;1116;-79
2023/04/23 06:38:51;;;;;;;;;;;;;;;21.71;30.15;98036.94;4996409;28;1213;-79
2023/04/23 06:41:16;;;;;;;;;;;;;;;22.50;29.44;98051.78;4965044;28;1486;-79
2023/04/23 06:43:42;;;;;;;;;;;;;;;22.79;29.13;98052.50;4995502;28;992;-78
2023/04/23 06:46:19;;;;;;;;;;;;;;;22.73;29.17;98047.84;4980773;28;1239;-79
2023/04/23 06:48:45;;;;;;;;;;;;;;;22.06;30.11;98046.50;4995312;28;1910;-79
2023/04/23 06:51:11;;;;;;;;;;;;;;;22.10;29.63;98046.41;4981893;28;1116;-78
2023/04/23 06:53:36;;;;;;;;;;;;;;;21.99;29.86;98051.59;4980748;28;1224;-79
2023/04/23 06:56:02;;;;;;;;;;;;;;;21.73;30.08;98048.63;4998585;28;1023;-78
2023/04/23 06:58:30;;;;;;;;;;;;;;;21.85;30.33;98058.41;4996887;28;884;-79
2023/04/23 07:00:59;;;;;;;;;;;;;;;22.69;29.51;98058.50;4999195;28;863;-79
2023/04/23 07:03:27;;;;;;;;;;;;;;;22.52;29.36;98061.41;4981239;28;945;-78
2023/04/23 07:05:52;;;;;;;;;;;;;;;22.69;29.17;98065.00;4998339;28;908;-80
2023/04/23 07:08:19;;;;;;;;;;;;;;;22.40;29.36;98069.91;4998327;28;1894;-80
2023/04/23 07:10:45;;;;;;;;;;;;;;;22.28;29.87;98063.75;4997697;28;963;-79
2023/04/23 07:13:11;;;;;;;;;;;;;;;21.92;29.95;98065.94;4996625;28;1336;-79
2023/04/23 07:15:36;;;;;;;;;;;;;;;22.16;29.61;98072.19;4981165;28;1318;-79
2023/04/23 07:18:02;;;;;;;;;;;;;;;21.99;29.63;98062.91;4997068;28;940;-78
2023/04/23 07:20:28;;;;;;;;;;;;;;;21.95;30.07;98059.38;4980874;28;905;-79
2023/04/23 07:22:53;;;;;;;;;;;;;;;21.90;30.24;98062.75;4981219;28;1591;-79
2023/04/23 07:25:21;;;;;;;;;;;;;;;21.97;30.01;98059.75;4981088;28;1414;-79
2023/04/23 07:27:46;;;;;;;;;;;;;;;21.77;30.16;98063.50;4997724;28;1973;-79
2023/04/23 07:30:12;;;;;;;;;;;;;;;22.03;29.56;98057.94;5013975;28;910;-79
2023/04/23 07:32:38;;;;;;;;;;;;;;;21.65;30.40;98064.19;4997172;28;1245;-79
2023/04/23 07:35:04;;;;;;;;;;;;;;;21.73;30.20;98064.81;4997139;28;963;-79
2023/04/23 07:37:29;;;;;;;;;;;;;;;21.85;29.93;98059.22;5005352;28;1152;-79
2023/04/23 07:39:55;;;;;;;;;;;;;;;21.71;30.21;98051.13;4983426;28;895;-79
2023/04/23 07:42:20;;;;;;;;;;;;;;;22.48;29.55;98059.94;4983807;28;1242;-79
2023/04/23 07:44:46;;;;;;;;;;;;;;;22.72;29.37;98058.41;4983763;28;1231;-79
2023/04/23 07:47:11;;;;;;;;;;;;;;;23.04;28.88;98062.31;4967395;28;1879;-77
2023/04/23 07:49:37;;;;;;;;;;;;;;;22.25;29.96;98053.28;4983707;28;1247;-79
2023/04/23 07:52:02;;;;;;;;;;;;;;;21.59;31.17;98057.47;4976560;28;1024;-78
2023/04/23 07:54:28;;;;;;;;;;;;;;;21.89;30.33;98053.47;4960850;28;957;-79
2023/04/23 07:56:53;;;;;;;;;;;;;;;21.95;30.36;98056.53;4964205;28;896;-79
2023/04/23 07:59:19;;;;;;;;;;;;;;;21.99;30.15;98057.25;4995982;28;991;-78
2023/04/23 08:01:44;;;;;;;;;;;;;;;21.74;30.29;98053.03;4996494;28;1001;-79
2023/04/23 08:04:10;;;;;;;;;;;;;;;21.74;30.21;98058.69;4980013;28;1251;-79
2023/04/23 08:06:36;;;;;;;;;;;;;;;21.72;30.29;98055.53;4997028;28;969;-79
2023/04/23 08:09:05;;;;;;;;;;;;;;;21.79;30.32;98055.34;4979450;28;1973;-80
2023/04/23 08:11:31;;;;;;;;;;;;;;;22.39;29.88;98051.31;4996677;28;1140;-80
2023/04/23 08:13:56;;;;;;;;;;;;;;;22.58;29.61;98050.31;4979554;28;1080;-79
2023/04/23 08:16:22;;;;;;;;;;;;;;;22.55;29.43;98043.53;4979798;28;1099;-79
2023/04/23 08:18:47;;;;;;;;;;;;;;;22.19;29.71;98057.13;4995462;28;902;-78
2023/04/23 08:21:13;;;;;;;;;;;;;;;21.97;30.20;98054.06;4980087;28;963;-78
2023/04/23 08:23:39;;;;;;;;;;;;;;;21.98;30.14;98042.28;5010398;28;929;-77
2023/04/23 08:26:04;;;;;;;;;;;;;;;21.89;29.95;98041.34;5004097;28;917;-77
2023/04/23 08:28:30;;;;;;;;;;;;;;;21.96;29.72;98038.28;5002807;28;2064;-77
2023/04/23 08:30:56;;;;;;;;;;;;;;;21.82;30.08;98037.47;5003958;28;1011;-78
2023/04/23 08:33:21;;;;;;;;;;;;;;;22.46;29.84;98046.22;4986791;28;1233;-76
2023/04/23 08:35:47;;;;;;;;;;;;;;;22.43;29.76;98047.09;5003862;28;939;-79
2023/04/23 08:38:12;;;;;;;;;;;;;;;22.59;29.31;98054.78;4999439;28;1206;-77
2023/04/23 08:40:38;;;;;;;;;;;;;;;22.18;29.84;98053.50;5001735;28;942;-77
2023/04/23 08:43:12;;;;;;;;;;;;;;;22.07;29.54;98052.97;4999579;28;923;-77
2023/04/23 08:45:40;;;;;;;;;;;;;;;21.84;29.93;98043.47;4984540;28;1137;-78
2023/04/23 08:48:06;;;;;;;;;;;;;;;21.62;30.49;98045.28;4984029;28;1973;-77
2023/04/23 08:50:31;;;;;;;;;;;;;;;22.03;30.23;98053.06;5000225;28;1110;-78
2023/04/23 08:52:57;;;;;;;;;;;;;;;22.46;29.41;98051.09;4983470;28;1112;-76
2023/04/23 08:55:22;;;;;;;;;;;;;;;22.71;29.08;98059.66;4999776;28;1179;-77
2023/04/23 08:57:48;;;;;;;;;;;;;;;22.14;29.66;98064.16;5000320;28;933;-77
2023/04/23 09:00:14;;;;;;;;;;;;;;;21.84;29.99;98068.97;4999057;28;1280;-76
2023/04/23 09:02:41;;;;;;;;;;;;;;;21.93;29.54;98070.38;4983460;28;922;-78
2023/04/23 09:05:07;;;;;;;;;;;;;;;21.89;29.74;98098.00;4982719;28;940;-78
2023/04/23 09:07:33;;;;;;;;;;;;;;;22.23;29.63;98095.47;4981961;28;1898;-78
2023/04/23 09:09:59;;;;;;;;;;;;;;;22.44;29.04;98098.97;4982477;28;954;-77
2023/04/23 09:12:25;;;;;;;;;;;;;;;22.56;28.77;98101.03;4966292;28;1230;-78
2023/04/23 09:14:50;;;;;;;;;;;;;;;22.54;28.51;98095.03;4998698;28;912;-76
2023/04/23 09:17:16;;;;;;;;;;;;;;;21.97;28.92;98088.06;5000770;28;898;-77
2023/04/23 09:19:42;;;;;;;;;;;;;;;21.74;28.85;98081.34;5000096;28;919;-77
2023/04/23 09:22:08;;;;;;;;;;;;;;;21.91;28.79;98078.50;5000912;28;947;-76
2023/04/23 09:24:34;;;;;;;;;;;;;;;22.05;28.77;98078.13;4998992;28;928;-77
2023/04/23 09:26:59;;;;;;;;;;;;;;;22.26;28.56;98083.22;4998949;28;1969;-77
2023/04/23 09:29:25;;;;;;;;;;;;;;;22.34;28.29;98084.63;4998847;28;1012;-77
2023/04/23 09:31:52;;;;;;;;;;;;;;;22.21;28.29;98080.16;4998553;28;961;-76
2023/04/23 09:34:18;;;;;;;;;;;;;;;22.32;28.15;98070.09;4998563;28;961;-78
2023/04/23 09:36:48;;;;;;;;;;;;;;;21.90;28.73;98066.38;5000373;28;1142;-77
2023/04/23 09:39:13;;;;;;;;;;;;;;;21.34;29.47;98060.94;5003593;28;942;-79
2023/04/23 09:41:39;;;;;;;;;;;;;;;21.53;28.91;98059.25;4961922;28;1242;-77
2023/04/23 09:44:05;;;;;;;;;;;;;;;22.47;27.95;98053.47;4977767;28;901;-77
2023/04/23 09:46:33;;;;;;;;;;;;;;;22.27;28.23;98053.63;4961587;28;1014;-76
2023/04/23 09:48:59;;;;;;;;;;;;;;;22.47;27.76;98053.47;4977327;28;1969;-77
2023/04/23 09:51:27;;;;;;;;;;;;;;;22.41;27.63;98052.44;4978053;28;938;-76
2023/04/23 09:53:52;;;;;;;;;;;;;;;21.78;28.33;98042.41;4961267;28;1195;-77
2023/04/23 09:56:18;;;;;;;;;;;;;;;22.00;27.83;98042.63;4977929;28;958;-77
2023/04/23 09:58:44;;;;;;;;;;;;;;;22.05;27.54;98041.28;4944990;28;1104;-78
2023/04/23 10:01:09;;;;;;;;;;;;;;;22.10;27.62;98043.56;4961408;28;949;-76
2023/04/23 10:03:35;;;;;;;;;;;;;;;22.20;28.19;98044.56;4960838;28;907;-77
2023/04/23 10:06:01;;;;;;;;;;;;;;;22.45;27.56;98038.16;4961653;28;925;-77
2023/04/23 10:08:26;;;;;;;;;;;;;;;22.49;27.84;98033.19;4944693;28;1899;-77
2023/04/23 10:10:52;;;;;;;;;;;;;;;22.48;27.49;98025.91;4945032;28;1092;-77
2023/04/23 10:13:17;;;;;;;;;;;;;;;21.95;28.25;98028.22;4979780;28;1492;-77
2023/04/23 10:15:44;;;;;;;;;;;;;;;22.07;28.22;98030.28;4997962;28;2118;-77
2023/04/23 10:18:11;;;;;;;;;;;;;;;21.45;28.69;98019.03;5019657;28;1093;-77
2023/04/23 10:20:37;;;;;;;;;;;;;;;21.92;28.36;98017.78;5020351;28;884;-77
2023/04/23 10:23:02;;;;;;;;;;;;;;;22.36;28.03;98025.44;4987657;28;1124;-76
2023/04/23 10:25:28;;;;;;;;;;;;;;;22.35;27.90;98015.34;5020086;28;967;-77
2023/04/23 10:27:53;;;;;;;;;;;;;;;22.41;27.87;98014.78;5019992;28;1968;-78
2023/04/23 10:30:19;;;;;;;;;;;;;;;21.98;28.18;98016.00;5003740;28;963;-78
2023/04/23 10:32:44;;;;;;;;;;;;;;;21.97;28.47;98020.09;5003727;28;1124;-77
2023/04/23 10:35:10;;;;;;;;;;;;;;;21.68;28.34;98003.06;4987271;28;1283;-77
2023/04/23 10:37:35;;;;;;;;;;;;;;;21.55;28.82;98017.13;5003084;28;1232;-77
2023/04/23 10:40:10;;;;;;;;;;;;;;;22.13;28.13;98016.44;5019351;28;910;-77
2023/04/23 10:42:36;;;;;;;;;;;;;;;22.25;27.76;98010.78;5019580;28;1045;-77
2023/04/23 10:45:02;;;;;;;;;;;;;;;22.47;27.60;98008.09;5019111;28;1100;-77
2023/04/23 10:47:28;;;;;;;;;;;;;;;22.17;27.75;98006.56;5016408;28;1972;-76
2023/04/23 10:49:53;;;;;;;;;;;;;;;21.90;27.88;98004.06;5035558;28;968;-77
2023/04/23 10:52:20;;;;;;;;;;;;;;;21.61;28.57;98004.06;5019024;28;916;-77
2023/04/23 10:54:49;;;;;;;;;;;;;;;21.75;28.06;98006.47;5019033;28;1147;-78
2023/04/23 10:57:15;;;;;;;;;;;;;;;22.09;28.01;98005.16;5019342;28;973;-77
2023/04/23 10:59:50;;;;;;;;;;;;;;;22.09;28.23;98007.97;5019165;28;1022;-77
2023/04/23 11:02:16;;;;;;;;;;;;;;;22.25;27.77;98013.63;5003130;28;967;-77
2023/04/23 11:04:43;;;;;;;;;;;;;;;22.05;28.16;98012.94;5036673;28;992;-77
2023/04/23 11:07:09;;;;;;;;;;;;;;;21.90;28.20;98008.94;5037068;28;1971;-77
2023/04/23 11:09:48;;;;;;;;;;;;;;;21.81;28.28;98006.72;5036532;28;1065;-77
2023/04/23 11:12:19;;;;;;;;;;;;;;;21.51;28.32;98003.09;5019158;28;979;-77
2023/04/23 11:14:50;;;;;;;;;;;;;;;21.45;28.83;98002.03;5036494;28;990;-77
2023/04/23 11:17:17;;;;;;;;;;;;;;;22.23;27.86;98004.78;5003399;28;1119;-77
2023/04/23 11:20:02;;;;;;;;;;;;;;;22.47;27.55;97995.97;5018856;28;996;-77
2023/04/23 11:22:43;;;;;;;;;;;;;;;22.30;27.71;97998.88;5019057;28;1165;-77
2023/04/23 11:25:18;;;;;;;;;;;;;;;21.74;28.42;97996.41;5036485;28;884;-77
2023/04/23 11:27:44;;;;;;;;;;;;;;;21.70;28.25;97998.53;5002518;28;1898;-78
2023/04/23 11:30:13;;;;;;;;;;;;;;;21.73;28.20;97997.66;5018768;28;1070;-77
2023/04/23 11:32:42;;;;;;;;;;;;;;;21.50;28.76;97997.84;5036728;28;959;-77
2023/04/23 11:35:08;;;;;;;;;;;;;;;22.43;27.38;98006.63;5019218;28;996;-77
2023/04/23 11:37:37;;;;;;;;;;;;;;;22.62;26.95;97997.13;4975292;28;1316;-77
2023/04/23 11:40:09;;;;;;;;;;;;;;;22.55;27.08;98003.03;4959170;28;1109;-77
2023/04/23 11:42:48;;;;;;;;;;;;;;;22.10;27.52;97995.41;4959659;28;1181;-77
2023/04/23 11:45:19;;;;;;;;;;;;;;;21.83;28.19;98005.06;4959652;28;1151;-76
2023/04/23 11:47:45;;;;;;;;;;;;;;;21.78;27.93;97997.09;4975385;28;1911;-77
2023/04/23 11:50:17;;;;;;;;;;;;;;;21.76;28.32;98005.25;4959303;28;946;-78
2023/04/23 11:52:43;;;;;;;;;;;;;;;21.41;28.54;98000.53;4959375;28;986;-77
2023/04/23 11:55:09;;;;;;;;;;;;;;;22.09;27.86;98000.28;4959123;28;1020;-77
2023/04/23 11:57:43;;;;;;;;;;;;;;;22.23;27.41;98001.94;4959485;28;1103;-77
2023/04/23 12:00:10;;;;;;;;;;;;;;;22.24;27.67;98000.69;4958808;28;950;-77
2023/04/23 12:02:37;;;;;;;;;;;;;;;22.30;27.19;97998.88;4959341;28;1039;-78
2023/04/23 12:05:08;;;;;;;;;;;;;;;21.78;28.00;97984.97;4942874;28;1056;-78
2023/04/23 12:07:33;;;;;;;;;;;;;;;21.57;28.13;97986.34;4963204;28;1902;-78
2023/04/23 12:09:59;;;;;;;;;;;;;;;21.32;28.71;97987.78;5015071;28;849;-78
2023/04/23 12:12:31;;;;;;;;;;;;;;;22.16;27.85;97976.63;4999171;28;898;-77
2023/04/23 12:15:06;;;;;;;;;;;;;;;22.28;27.45;97983.59;5016254;28;862;-76
2023/04/23 12:17:31;;;;;;;;;;;;;;;22.20;27.76;97988.66;5015397;28;1142;-77
2023/04/23 12:19:57;;;;;;;;;;;;;;;21.71;28.07;97960.50;4998700;28;960;-77
2023/04/23 12:22:26;;;;;;;;;;;;;;;21.65;28.09;97976.41;4982731;28;990;-76
2023/04/23 12:24:53;;;;;;;;;;;;;;;21.82;27.86;97969.47;5016495;28;929;-78
2023/04/23 12:27:20;;;;;;;;;;;;;;;21.99;27.57;97970.22;4999102;28;1979;-76
2023/04/23 12:29:50;;;;;;;;;;;;;;;21.91;27.95;97965.97;5015493;28;1174;-77
2023/04/23 12:32:17;;;;;;;;;;;;;;;22.10;27.68;97964.22;4975186;28;1142;-77
2023/04/23 12:34:54;;;;;;;;;;;;;;;22.34;27.50;97959.91;4959241;28;1014;-77
2023/04/23 12:37:37;;;;;;;;;;;;;;;22.27;27.08;97954.44;4959080;28;1303;-78
2023/04/23 12:40:06;;;;;;;;;;;;;;;21.84;27.77;97949.19;4958921;28;1013;-79
2023/04/23 12:42:31;;;;;;;;;;;;;;;21.38;28.26;97916.50;4963136;28;1085;-78
2023/04/23 12:45:04;;;;;;;;;;;;;;;21.59;28.42;97949.88;4978463;28;1097;-78
2023/04/23 12:47:29;;;;;;;;;;;;;;;21.64;27.97;97946.50;4962804;28;1902;-78
2023/04/23 12:49:55;;;;;;;;;;;;;;;22.26;27.19;97933.00;4961828;28;932;-78
2023/04/23 12:52:21;;;;;;;;;;;;;;;22.15;27.69;97935.38;4978316;28;949;-78
2023/04/23 12:54:50;;;;;;;;;;;;;;;22.29;27.27;97926.44;4962131;28;985;-78
2023/04/23 12:57:20;;;;;;;;;;;;;;;21.98;27.67;97931.78;4962536;28;994;-78